sensor_id;sensor_type;location;lat;lon;timestamp;P1;durP1;ratioP1;P2;durP2;ratioP2
76035;SDS011;64732;56.314;44.068;2023-02-01T00:01:06;17.73;;;7.88;;
76035;SDS011;64732;56.314;44.068;2023-02-01T00:03:27;23.08;;;9.30;;
76035;SDS011;64732;56.314;44.068;2023-02-01T00:05:57;25.60;;;10.48;;
76035;SDS011;64732;56.314;44.068;2023-02-01T00:08:18;19.98;;;8.27;;
76035;SDS011;64732;56.314;44.068;2023-02-01T00:10:39;23.80;;;9.80;;
76035;SDS011;64732;56.314;44.068;2023-02-01T00:13:00;22.83;;;8.60;;
76035;SDS011;64732;56.314;44.068;2023-02-01T00:15:21;17.02;;;7.60;;
76035;SDS011;64732;56.314;44.068;2023-02-01T00:17:42;18.33;;;7.20;;
76035;SDS011;64732;56.314;44.068;2023-02-01T00:20:04;17.88;;;8.65;;
76035;SDS011;64732;56.314;44.068;2023-02-01T00:22:28;19.15;;;7.55;;
76035;SDS011;64732;56.314;44.068;2023-02-01T00:24:49;20.75;;;9.43;;
76035;SDS011;64732;56.314;44.068;2023-02-01T00:27:10;20.10;;;8.82;;
76035;SDS011;64732;56.314;44.068;2023-02-01T00:29:31;15.77;;;6.57;;
76035;SDS011;64732;56.314;44.068;2023-02-01T00:31:53;19.48;;;7.60;;
76035;SDS011;64732;56.314;44.068;2023-02-01T00:34:15;23.73;;;9.55;;
76035;SDS011;64732;56.314;44.068;2023-02-01T00:36:39;20.27;;;8.20;;
76035;SDS011;64732;56.314;44.068;2023-02-01T00:39:03;16.25;;;7.60;;
76035;SDS011;64732;56.314;44.068;2023-02-01T00:41:24;21.30;;;9.25;;
76035;SDS011;64732;56.314;44.068;2023-02-01T00:43:45;17.13;;;8.52;;
76035;SDS011;64732;56.314;44.068;2023-02-01T00:46:07;20.30;;;7.57;;
76035;SDS011;64732;56.314;44.068;2023-02-01T00:48:28;19.50;;;8.60;;
76035;SDS011;64732;56.314;44.068;2023-02-01T00:50:49;18.63;;;7.95;;
76035;SDS011;64732;56.314;44.068;2023-02-01T00:53:10;21.15;;;8.07;;
76035;SDS011;64732;56.314;44.068;2023-02-01T00:55:33;22.13;;;8.25;;
76035;SDS011;64732;56.314;44.068;2023-02-01T00:57:54;17.77;;;7.38;;
76035;SDS011;64732;56.314;44.068;2023-02-01T01:00:16;19.45;;;7.68;;
76035;SDS011;64732;56.314;44.068;2023-02-01T01:02:38;19.73;;;7.50;;
76035;SDS011;64732;56.314;44.068;2023-02-01T01:04:58;16.40;;;7.32;;
76035;SDS011;64732;56.314;44.068;2023-02-01T01:07:19;17.73;;;7.75;;
76035;SDS011;64732;56.314;44.068;2023-02-01T01:09:40;22.30;;;7.50;;
76035;SDS011;64732;56.314;44.068;2023-02-01T01:12:04;19.38;;;9.88;;
76035;SDS011;64732;56.314;44.068;2023-02-01T01:14:25;18.35;;;8.30;;
76035;SDS011;64732;56.314;44.068;2023-02-01T01:16:46;20.42;;;7.63;;
76035;SDS011;64732;56.314;44.068;2023-02-01T01:19:07;18.90;;;9.45;;
76035;SDS011;64732;56.314;44.068;2023-02-01T01:21:28;24.40;;;9.20;;
76035;SDS011;64732;56.314;44.068;2023-02-01T01:23:50;18.98;;;8.65;;
76035;SDS011;64732;56.314;44.068;2023-02-01T01:26:12;20.60;;;8.00;;
76035;SDS011;64732;56.314;44.068;2023-02-01T01:28:38;24.85;;;10.23;;
76035;SDS011;64732;56.314;44.068;2023-02-01T01:30:59;18.90;;;7.55;;
76035;SDS011;64732;56.314;44.068;2023-02-01T01:33:20;19.75;;;8.32;;
76035;SDS011;64732;56.314;44.068;2023-02-01T01:35:41;24.00;;;9.57;;
76035;SDS011;64732;56.314;44.068;2023-02-01T01:38:02;23.80;;;10.20;;
76035;SDS011;64732;56.314;44.068;2023-02-01T01:40:23;23.17;;;9.00;;
76035;SDS011;64732;56.314;44.068;2023-02-01T01:42:44;17.95;;;8.35;;
76035;SDS011;64732;56.314;44.068;2023-02-01T01:45:11;23.50;;;9.85;;
76035;SDS011;64732;56.314;44.068;2023-02-01T01:47:41;22.50;;;9.27;;
76035;SDS011;64732;56.314;44.068;2023-02-01T01:50:05;22.83;;;9.40;;
76035;SDS011;64732;56.314;44.068;2023-02-01T01:52:28;24.00;;;9.25;;
76035;SDS011;64732;56.314;44.068;2023-02-01T01:54:49;23.85;;;9.65;;
76035;SDS011;64732;56.314;44.068;2023-02-01T01:57:14;29.05;;;11.57;;
76035;SDS011;64732;56.314;44.068;2023-02-01T01:59:38;18.52;;;8.23;;
76035;SDS011;64732;56.314;44.068;2023-02-01T02:02:03;24.55;;;9.15;;
76035;SDS011;64732;56.314;44.068;2023-02-01T02:04:24;20.48;;;9.48;;
76035;SDS011;64732;56.314;44.068;2023-02-01T02:06:47;21.08;;;8.80;;
76035;SDS011;64732;56.314;44.068;2023-02-01T02:09:10;22.55;;;10.23;;
76035;SDS011;64732;56.314;44.068;2023-02-01T02:11:31;19.33;;;8.07;;
76035;SDS011;64732;56.314;44.068;2023-02-01T02:13:53;21.50;;;9.88;;
76035;SDS011;64732;56.314;44.068;2023-02-01T02:16:31;16.73;;;7.13;;
76035;SDS011;64732;56.314;44.068;2023-02-01T02:19:05;26.60;;;11.10;;
76035;SDS011;64732;56.314;44.068;2023-02-01T02:21:51;25.45;;;10.82;;
76035;SDS011;64732;56.314;44.068;2023-02-01T02:27:20;26.10;;;9.82;;
76035;SDS011;64732;56.314;44.068;2023-02-01T02:29:54;26.70;;;10.15;;
76035;SDS011;64732;56.314;44.068;2023-02-01T02:32:39;24.17;;;10.63;;
76035;SDS011;64732;56.314;44.068;2023-02-01T02:35:13;18.15;;;7.68;;
76035;SDS011;64732;56.314;44.068;2023-02-01T02:37:38;25.92;;;11.45;;
76035;SDS011;64732;56.314;44.068;2023-02-01T02:40:04;26.25;;;11.48;;
76035;SDS011;64732;56.314;44.068;2023-02-01T02:42:29;27.42;;;10.93;;
76035;SDS011;64732;56.314;44.068;2023-02-01T02:44:53;25.90;;;12.07;;
76035;SDS011;64732;56.314;44.068;2023-02-01T02:47:22;23.83;;;11.23;;
76035;SDS011;64732;56.314;44.068;2023-02-01T02:49:48;28.10;;;11.50;;
76035;SDS011;64732;56.314;44.068;2023-02-01T02:52:15;26.58;;;11.75;;
76035;SDS011;64732;56.314;44.068;2023-02-01T02:54:38;28.05;;;10.38;;
76035;SDS011;64732;56.314;44.068;2023-02-01T02:57:02;23.40;;;10.50;;
76035;SDS011;64732;56.314;44.068;2023-02-01T02:59:25;28.02;;;11.15;;
76035;SDS011;64732;56.314;44.068;2023-02-01T03:01:48;31.67;;;12.50;;
76035;SDS011;64732;56.314;44.068;2023-02-01T03:04:09;24.98;;;10.23;;
76035;SDS011;64732;56.314;44.068;2023-02-01T03:06:31;29.77;;;11.05;;
76035;SDS011;64732;56.314;44.068;2023-02-01T03:08:57;27.65;;;10.68;;
76035;SDS011;64732;56.314;44.068;2023-02-01T03:11:18;28.13;;;11.45;;
76035;SDS011;64732;56.314;44.068;2023-02-01T03:13:41;24.00;;;9.90;;
76035;SDS011;64732;56.314;44.068;2023-02-01T03:16:06;30.63;;;11.27;;
76035;SDS011;64732;56.314;44.068;2023-02-01T03:18:32;20.08;;;9.23;;
76035;SDS011;64732;56.314;44.068;2023-02-01T03:20:56;26.08;;;10.85;;
76035;SDS011;64732;56.314;44.068;2023-02-01T03:23:19;25.95;;;10.02;;
76035;SDS011;64732;56.314;44.068;2023-02-01T03:25:45;36.75;;;13.85;;
76035;SDS011;64732;56.314;44.068;2023-02-01T03:28:08;30.45;;;11.70;;
76035;SDS011;64732;56.314;44.068;2023-02-01T03:30:31;23.23;;;9.60;;
76035;SDS011;64732;56.314;44.068;2023-02-01T03:32:56;29.05;;;12.18;;
76035;SDS011;64732;56.314;44.068;2023-02-01T03:35:20;24.13;;;9.50;;
76035;SDS011;64732;56.314;44.068;2023-02-01T03:37:45;27.95;;;10.30;;
76035;SDS011;64732;56.314;44.068;2023-02-01T03:40:08;25.20;;;11.27;;
76035;SDS011;64732;56.314;44.068;2023-02-01T03:42:37;26.80;;;11.10;;
76035;SDS011;64732;56.314;44.068;2023-02-01T03:45:01;28.00;;;11.60;;
76035;SDS011;64732;56.314;44.068;2023-02-01T03:47:27;24.90;;;10.23;;
76035;SDS011;64732;56.314;44.068;2023-02-01T03:49:51;17.27;;;6.63;;
76035;SDS011;64732;56.314;44.068;2023-02-01T03:52:14;23.52;;;9.88;;
76035;SDS011;64732;56.314;44.068;2023-02-01T03:54:38;29.35;;;11.48;;
76035;SDS011;64732;56.314;44.068;2023-02-01T03:57:00;29.67;;;12.35;;
76035;SDS011;64732;56.314;44.068;2023-02-01T03:59:26;26.10;;;10.80;;
76035;SDS011;64732;56.314;44.068;2023-02-01T04:01:47;29.88;;;11.55;;
76035;SDS011;64732;56.314;44.068;2023-02-01T04:04:08;31.05;;;12.25;;
76035;SDS011;64732;56.314;44.068;2023-02-01T04:06:29;26.42;;;10.63;;
76035;SDS011;64732;56.314;44.068;2023-02-01T04:08:50;24.48;;;9.93;;
76035;SDS011;64732;56.314;44.068;2023-02-01T04:11:11;28.10;;;10.85;;
76035;SDS011;64732;56.314;44.068;2023-02-01T04:13:32;27.08;;;11.10;;
76035;SDS011;64732;56.314;44.068;2023-02-01T04:15:56;25.60;;;9.63;;
76035;SDS011;64732;56.314;44.068;2023-02-01T04:18:17;29.02;;;11.55;;
76035;SDS011;64732;56.314;44.068;2023-02-01T04:20:38;25.75;;;10.55;;
76035;SDS011;64732;56.314;44.068;2023-02-01T04:22:59;26.42;;;10.25;;
76035;SDS011;64732;56.314;44.068;2023-02-01T04:25:20;26.85;;;11.13;;
76035;SDS011;64732;56.314;44.068;2023-02-01T04:27:41;30.52;;;12.52;;
76035;SDS011;64732;56.314;44.068;2023-02-01T04:30:02;26.63;;;9.10;;
76035;SDS011;64732;56.314;44.068;2023-02-01T04:32:27;28.42;;;11.90;;
76035;SDS011;64732;56.314;44.068;2023-02-01T04:34:50;26.20;;;9.90;;
76035;SDS011;64732;56.314;44.068;2023-02-01T04:37:11;23.67;;;10.27;;
76035;SDS011;64732;56.314;44.068;2023-02-01T04:39:32;32.63;;;12.70;;
76035;SDS011;64732;56.314;44.068;2023-02-01T04:41:53;24.65;;;9.98;;
76035;SDS011;64732;56.314;44.068;2023-02-01T04:44:14;30.17;;;11.23;;
76035;SDS011;64732;56.314;44.068;2023-02-01T04:46:36;22.67;;;9.35;;
76035;SDS011;64732;56.314;44.068;2023-02-01T04:49:00;26.63;;;10.60;;
76035;SDS011;64732;56.314;44.068;2023-02-01T04:51:22;27.50;;;10.93;;
76035;SDS011;64732;56.314;44.068;2023-02-01T04:53:43;24.13;;;10.57;;
76035;SDS011;64732;56.314;44.068;2023-02-01T04:56:04;24.13;;;9.93;;
76035;SDS011;64732;56.314;44.068;2023-02-01T04:58:26;20.08;;;8.00;;
76035;SDS011;64732;56.314;44.068;2023-02-01T05:00:50;21.90;;;8.75;;
76035;SDS011;64732;56.314;44.068;2023-02-01T05:03:11;23.23;;;9.52;;
76035;SDS011;64732;56.314;44.068;2023-02-01T05:05:34;23.40;;;10.05;;
76035;SDS011;64732;56.314;44.068;2023-02-01T05:07:55;24.67;;;9.85;;
76035;SDS011;64732;56.314;44.068;2023-02-01T05:10:17;31.52;;;10.18;;
76035;SDS011;64732;56.314;44.068;2023-02-01T05:12:38;22.95;;;9.38;;
76035;SDS011;64732;56.314;44.068;2023-02-01T05:14:59;25.92;;;11.57;;
76035;SDS011;64732;56.314;44.068;2023-02-01T05:17:20;25.02;;;10.10;;
76035;SDS011;64732;56.314;44.068;2023-02-01T05:19:41;17.80;;;7.00;;
76035;SDS011;64732;56.314;44.068;2023-02-01T05:22:04;25.17;;;8.77;;
76035;SDS011;64732;56.314;44.068;2023-02-01T05:24:25;21.83;;;9.00;;
76035;SDS011;64732;56.314;44.068;2023-02-01T05:26:46;19.40;;;9.73;;
76035;SDS011;64732;56.314;44.068;2023-02-01T05:29:08;30.25;;;11.40;;
76035;SDS011;64732;56.314;44.068;2023-02-01T05:31:30;25.75;;;11.63;;
76035;SDS011;64732;56.314;44.068;2023-02-01T05:33:51;26.30;;;11.45;;
76035;SDS011;64732;56.314;44.068;2023-02-01T05:36:15;15.85;;;7.28;;
76035;SDS011;64732;56.314;44.068;2023-02-01T05:38:38;15.48;;;6.03;;
76035;SDS011;64732;56.314;44.068;2023-02-01T05:40:59;22.73;;;9.15;;
76035;SDS011;64732;56.314;44.068;2023-02-01T05:43:20;25.63;;;10.45;;
76035;SDS011;64732;56.314;44.068;2023-02-01T05:45:41;19.15;;;9.13;;
76035;SDS011;64732;56.314;44.068;2023-02-01T05:48:04;26.58;;;10.68;;
76035;SDS011;64732;56.314;44.068;2023-02-01T05:50:26;27.42;;;11.57;;
76035;SDS011;64732;56.314;44.068;2023-02-01T05:52:47;17.60;;;6.82;;
76035;SDS011;64732;56.314;44.068;2023-02-01T05:55:11;28.63;;;11.40;;
76035;SDS011;64732;56.314;44.068;2023-02-01T05:57:33;24.20;;;9.90;;
76035;SDS011;64732;56.314;44.068;2023-02-01T05:59:54;28.17;;;11.68;;
76035;SDS011;64732;56.314;44.068;2023-02-01T06:02:16;25.58;;;10.35;;
76035;SDS011;64732;56.314;44.068;2023-02-01T06:04:37;21.05;;;9.13;;
76035;SDS011;64732;56.314;44.068;2023-02-01T06:06:58;23.58;;;10.32;;
76035;SDS011;64732;56.314;44.068;2023-02-01T06:09:19;25.85;;;11.15;;
76035;SDS011;64732;56.314;44.068;2023-02-01T06:11:42;29.60;;;11.80;;
76035;SDS011;64732;56.314;44.068;2023-02-01T06:14:03;31.25;;;12.70;;
76035;SDS011;64732;56.314;44.068;2023-02-01T06:16:24;16.05;;;7.43;;
76035;SDS011;64732;56.314;44.068;2023-02-01T06:18:45;26.48;;;11.75;;
76035;SDS011;64732;56.314;44.068;2023-02-01T06:21:07;27.42;;;10.77;;
76035;SDS011;64732;56.314;44.068;2023-02-01T06:23:28;23.60;;;10.85;;
76035;SDS011;64732;56.314;44.068;2023-02-01T06:25:50;24.70;;;11.13;;
76035;SDS011;64732;56.314;44.068;2023-02-01T06:28:14;21.63;;;9.50;;
76035;SDS011;64732;56.314;44.068;2023-02-01T06:30:37;28.55;;;11.82;;
76035;SDS011;64732;56.314;44.068;2023-02-01T06:32:58;28.10;;;13.02;;
76035;SDS011;64732;56.314;44.068;2023-02-01T06:35:18;25.38;;;11.43;;
76035;SDS011;64732;56.314;44.068;2023-02-01T06:37:39;23.33;;;10.10;;
76035;SDS011;64732;56.314;44.068;2023-02-01T06:40:03;24.15;;;10.27;;
76035;SDS011;64732;56.314;44.068;2023-02-01T06:42:26;24.10;;;10.50;;
76035;SDS011;64732;56.314;44.068;2023-02-01T06:44:49;27.55;;;10.60;;
76035;SDS011;64732;56.314;44.068;2023-02-01T06:47:10;20.67;;;9.98;;
76035;SDS011;64732;56.314;44.068;2023-02-01T06:49:31;22.52;;;10.85;;
76035;SDS011;64732;56.314;44.068;2023-02-01T06:51:52;25.48;;;10.88;;
76035;SDS011;64732;56.314;44.068;2023-02-01T06:54:13;27.67;;;11.20;;
76035;SDS011;64732;56.314;44.068;2023-02-01T06:56:34;26.02;;;10.23;;
76035;SDS011;64732;56.314;44.068;2023-02-01T06:58:55;25.17;;;10.00;;
76035;SDS011;64732;56.314;44.068;2023-02-01T07:01:18;22.23;;;9.68;;
76035;SDS011;64732;56.314;44.068;2023-02-01T07:03:40;29.23;;;11.85;;
76035;SDS011;64732;56.314;44.068;2023-02-01T07:06:01;26.33;;;11.95;;
76035;SDS011;64732;56.314;44.068;2023-02-01T07:08:23;23.65;;;9.52;;
76035;SDS011;64732;56.314;44.068;2023-02-01T07:10:44;26.08;;;11.60;;
76035;SDS011;64732;56.314;44.068;2023-02-01T07:13:04;20.90;;;8.50;;
76035;SDS011;64732;56.314;44.068;2023-02-01T07:15:25;21.83;;;9.45;;
76035;SDS011;64732;56.314;44.068;2023-02-01T07:17:49;17.63;;;6.88;;
76035;SDS011;64732;56.314;44.068;2023-02-01T07:20:10;20.50;;;8.65;;
76035;SDS011;64732;56.314;44.068;2023-02-01T07:22:31;25.42;;;11.30;;
76035;SDS011;64732;56.314;44.068;2023-02-01T07:24:52;23.63;;;10.02;;
76035;SDS011;64732;56.314;44.068;2023-02-01T07:27:13;24.88;;;10.52;;
76035;SDS011;64732;56.314;44.068;2023-02-01T07:29:34;24.73;;;11.05;;
76035;SDS011;64732;56.314;44.068;2023-02-01T07:31:55;26.35;;;11.73;;
76035;SDS011;64732;56.314;44.068;2023-02-01T07:34:19;24.20;;;10.93;;
76035;SDS011;64732;56.314;44.068;2023-02-01T07:36:40;23.30;;;10.50;;
76035;SDS011;64732;56.314;44.068;2023-02-01T07:39:01;21.30;;;9.52;;
76035;SDS011;64732;56.314;44.068;2023-02-01T07:41:22;27.67;;;11.60;;
76035;SDS011;64732;56.314;44.068;2023-02-01T07:43:43;26.25;;;11.25;;
76035;SDS011;64732;56.314;44.068;2023-02-01T07:46:05;24.70;;;10.90;;
76035;SDS011;64732;56.314;44.068;2023-02-01T07:48:26;30.00;;;11.15;;
76035;SDS011;64732;56.314;44.068;2023-02-01T07:50:56;26.65;;;11.50;;
76035;SDS011;64732;56.314;44.068;2023-02-01T07:53:17;23.35;;;10.70;;
76035;SDS011;64732;56.314;44.068;2023-02-01T07:55:38;23.90;;;11.48;;
76035;SDS011;64732;56.314;44.068;2023-02-01T07:57:59;23.42;;;9.77;;
76035;SDS011;64732;56.314;44.068;2023-02-01T08:00:20;27.58;;;11.43;;
76035;SDS011;64732;56.314;44.068;2023-02-01T08:02:41;26.00;;;11.88;;
76035;SDS011;64732;56.314;44.068;2023-02-01T08:05:02;29.90;;;12.48;;
76035;SDS011;64732;56.314;44.068;2023-02-01T08:07:26;26.40;;;11.10;;
76035;SDS011;64732;56.314;44.068;2023-02-01T08:09:47;24.38;;;10.98;;
76035;SDS011;64732;56.314;44.068;2023-02-01T08:12:08;30.05;;;11.63;;
76035;SDS011;64732;56.314;44.068;2023-02-01T08:14:29;24.23;;;10.32;;
76035;SDS011;64732;56.314;44.068;2023-02-01T08:16:50;30.42;;;14.20;;
76035;SDS011;64732;56.314;44.068;2023-02-01T08:19:11;28.15;;;12.45;;
76035;SDS011;64732;56.314;44.068;2023-02-01T08:21:33;26.25;;;10.90;;
76035;SDS011;64732;56.314;44.068;2023-02-01T08:23:57;24.23;;;10.73;;
76035;SDS011;64732;56.314;44.068;2023-02-01T08:26:18;29.38;;;11.57;;
76035;SDS011;64732;56.314;44.068;2023-02-01T08:28:41;29.08;;;11.98;;
76035;SDS011;64732;56.314;44.068;2023-02-01T08:31:06;25.73;;;11.68;;
76035;SDS011;64732;56.314;44.068;2023-02-01T08:33:27;28.85;;;11.95;;
76035;SDS011;64732;56.314;44.068;2023-02-01T08:35:51;25.73;;;10.88;;
76035;SDS011;64732;56.314;44.068;2023-02-01T08:38:15;30.45;;;11.93;;
76035;SDS011;64732;56.314;44.068;2023-02-01T08:40:39;25.23;;;11.30;;
76035;SDS011;64732;56.314;44.068;2023-02-01T08:43:00;30.77;;;12.48;;
76035;SDS011;64732;56.314;44.068;2023-02-01T08:45:21;25.70;;;11.32;;
76035;SDS011;64732;56.314;44.068;2023-02-01T08:47:43;25.98;;;9.88;;
76035;SDS011;64732;56.314;44.068;2023-02-01T08:50:05;25.95;;;11.13;;
76035;SDS011;64732;56.314;44.068;2023-02-01T08:52:26;27.35;;;12.25;;
76035;SDS011;64732;56.314;44.068;2023-02-01T08:54:47;29.35;;;13.10;;
76035;SDS011;64732;56.314;44.068;2023-02-01T08:57:11;28.45;;;11.75;;
76035;SDS011;64732;56.314;44.068;2023-02-01T08:59:32;28.77;;;12.70;;
76035;SDS011;64732;56.314;44.068;2023-02-01T09:01:53;30.15;;;13.30;;
76035;SDS011;64732;56.314;44.068;2023-02-01T09:04:14;24.25;;;9.05;;
76035;SDS011;64732;56.314;44.068;2023-02-01T09:06:35;28.33;;;11.90;;
76035;SDS011;64732;56.314;44.068;2023-02-01T09:08:56;29.67;;;12.88;;
76035;SDS011;64732;56.314;44.068;2023-02-01T09:11:18;39.28;;;14.32;;
76035;SDS011;64732;56.314;44.068;2023-02-01T09:13:42;30.25;;;13.15;;
76035;SDS011;64732;56.314;44.068;2023-02-01T09:16:03;30.27;;;13.77;;
76035;SDS011;64732;56.314;44.068;2023-02-01T09:18:24;32.20;;;14.05;;
76035;SDS011;64732;56.314;44.068;2023-02-01T09:20:45;33.70;;;14.85;;
76035;SDS011;64732;56.314;44.068;2023-02-01T09:23:06;33.63;;;12.30;;
76035;SDS011;64732;56.314;44.068;2023-02-01T09:25:27;33.03;;;13.32;;
76035;SDS011;64732;56.314;44.068;2023-02-01T09:27:49;33.17;;;13.27;;
76035;SDS011;64732;56.314;44.068;2023-02-01T09:30:13;31.20;;;13.73;;
76035;SDS011;64732;56.314;44.068;2023-02-01T09:32:35;26.48;;;11.73;;
76035;SDS011;64732;56.314;44.068;2023-02-01T09:34:56;32.22;;;13.63;;
76035;SDS011;64732;56.314;44.068;2023-02-01T09:37:17;33.47;;;13.43;;
76035;SDS011;64732;56.314;44.068;2023-02-01T09:39:39;29.00;;;12.77;;
76035;SDS011;64732;56.314;44.068;2023-02-01T09:42:04;30.50;;;12.73;;
76035;SDS011;64732;56.314;44.068;2023-02-01T09:44:37;32.70;;;13.25;;
76035;SDS011;64732;56.314;44.068;2023-02-01T09:47:13;29.23;;;12.18;;
76035;SDS011;64732;56.314;44.068;2023-02-01T09:49:36;31.30;;;14.10;;
76035;SDS011;64732;56.314;44.068;2023-02-01T09:52:00;30.15;;;13.35;;
76035;SDS011;64732;56.314;44.068;2023-02-01T09:54:23;52.10;;;23.35;;
76035;SDS011;64732;56.314;44.068;2023-02-01T09:56:47;35.25;;;14.45;;
76035;SDS011;64732;56.314;44.068;2023-02-01T09:59:15;33.40;;;14.18;;
76035;SDS011;64732;56.314;44.068;2023-02-01T10:01:43;43.25;;;21.38;;
76035;SDS011;64732;56.314;44.068;2023-02-01T10:04:09;32.90;;;13.60;;
76035;SDS011;64732;56.314;44.068;2023-02-01T10:06:33;30.30;;;13.10;;
76035;SDS011;64732;56.314;44.068;2023-02-01T10:09:08;32.03;;;13.85;;
76035;SDS011;64732;56.314;44.068;2023-02-01T10:11:39;33.30;;;13.75;;
76035;SDS011;64732;56.314;44.068;2023-02-01T10:14:08;34.47;;;12.68;;
76035;SDS011;64732;56.314;44.068;2023-02-01T10:16:34;35.40;;;14.32;;
76035;SDS011;64732;56.314;44.068;2023-02-01T10:19:08;32.78;;;13.68;;
76035;SDS011;64732;56.314;44.068;2023-02-01T10:21:47;31.67;;;13.77;;
76035;SDS011;64732;56.314;44.068;2023-02-01T10:24:15;27.20;;;12.15;;
76035;SDS011;64732;56.314;44.068;2023-02-01T10:26:42;25.20;;;10.32;;
76035;SDS011;64732;56.314;44.068;2023-02-01T10:29:10;33.55;;;15.15;;
76035;SDS011;64732;56.314;44.068;2023-02-01T10:31:35;28.48;;;12.90;;
76035;SDS011;64732;56.314;44.068;2023-02-01T10:33:58;38.72;;;17.00;;
76035;SDS011;64732;56.314;44.068;2023-02-01T10:36:23;34.80;;;13.73;;
76035;SDS011;64732;56.314;44.068;2023-02-01T10:38:47;34.17;;;14.07;;
76035;SDS011;64732;56.314;44.068;2023-02-01T10:41:10;36.13;;;14.25;;
76035;SDS011;64732;56.314;44.068;2023-02-01T10:43:33;33.13;;;13.98;;
76035;SDS011;64732;56.314;44.068;2023-02-01T10:45:54;35.22;;;15.07;;
76035;SDS011;64732;56.314;44.068;2023-02-01T10:48:15;31.75;;;13.63;;
76035;SDS011;64732;56.314;44.068;2023-02-01T10:50:37;34.85;;;14.27;;
76035;SDS011;64732;56.314;44.068;2023-02-01T10:53:04;30.33;;;13.40;;
76035;SDS011;64732;56.314;44.068;2023-02-01T10:55:28;35.25;;;14.82;;
76035;SDS011;64732;56.314;44.068;2023-02-01T10:58:00;32.50;;;14.85;;
76035;SDS011;64732;56.314;44.068;2023-02-01T11:00:26;34.25;;;13.10;;
76035;SDS011;64732;56.314;44.068;2023-02-01T11:02:47;31.42;;;13.85;;
76035;SDS011;64732;56.314;44.068;2023-02-01T11:05:09;30.58;;;13.25;;
76035;SDS011;64732;56.314;44.068;2023-02-01T11:07:30;34.85;;;14.65;;
76035;SDS011;64732;56.314;44.068;2023-02-01T11:09:54;30.20;;;13.82;;
76035;SDS011;64732;56.314;44.068;2023-02-01T11:12:22;36.72;;;14.52;;
76035;SDS011;64732;56.314;44.068;2023-02-01T11:14:46;32.97;;;13.60;;
76035;SDS011;64732;56.314;44.068;2023-02-01T11:17:21;39.17;;;15.55;;
76035;SDS011;64732;56.314;44.068;2023-02-01T11:19:46;33.70;;;14.63;;
76035;SDS011;64732;56.314;44.068;2023-02-01T11:22:08;43.92;;;16.33;;
76035;SDS011;64732;56.314;44.068;2023-02-01T11:24:32;36.15;;;15.55;;
76035;SDS011;64732;56.314;44.068;2023-02-01T11:26:58;31.25;;;13.38;;
76035;SDS011;64732;56.314;44.068;2023-02-01T11:29:21;34.13;;;14.02;;
76035;SDS011;64732;56.314;44.068;2023-02-01T11:31:42;38.13;;;15.00;;
76035;SDS011;64732;56.314;44.068;2023-02-01T11:34:08;33.25;;;14.23;;
76035;SDS011;64732;56.314;44.068;2023-02-01T11:36:33;38.10;;;15.60;;
76035;SDS011;64732;56.314;44.068;2023-02-01T11:39:06;31.83;;;13.98;;
76035;SDS011;64732;56.314;44.068;2023-02-01T11:41:29;32.90;;;13.15;;
76035;SDS011;64732;56.314;44.068;2023-02-01T11:43:54;28.95;;;12.63;;
76035;SDS011;64732;56.314;44.068;2023-02-01T11:46:17;32.00;;;13.38;;
76035;SDS011;64732;56.314;44.068;2023-02-01T11:48:39;28.85;;;13.73;;
76035;SDS011;64732;56.314;44.068;2023-02-01T11:51:04;32.72;;;14.05;;
76035;SDS011;64732;56.314;44.068;2023-02-01T11:53:38;30.23;;;14.23;;
76035;SDS011;64732;56.314;44.068;2023-02-01T11:56:09;36.80;;;14.43;;
76035;SDS011;64732;56.314;44.068;2023-02-01T11:58:37;34.97;;;15.40;;
76035;SDS011;64732;56.314;44.068;2023-02-01T12:01:15;38.85;;;16.60;;
76035;SDS011;64732;56.314;44.068;2023-02-01T12:04:11;38.20;;;15.70;;
76035;SDS011;64732;56.314;44.068;2023-02-01T12:06:42;40.78;;;16.35;;
76035;SDS011;64732;56.314;44.068;2023-02-01T12:09:17;36.97;;;15.73;;
76035;SDS011;64732;56.314;44.068;2023-02-01T12:11:48;32.33;;;13.20;;
76035;SDS011;64732;56.314;44.068;2023-02-01T12:14:21;40.17;;;16.65;;
76035;SDS011;64732;56.314;44.068;2023-02-01T12:16:51;37.78;;;15.40;;
76035;SDS011;64732;56.314;44.068;2023-02-01T12:19:23;40.47;;;16.48;;
76035;SDS011;64732;56.314;44.068;2023-02-01T12:22:09;35.42;;;15.02;;
76035;SDS011;64732;56.314;44.068;2023-02-01T12:27:20;36.72;;;15.93;;
76035;SDS011;64732;56.314;44.068;2023-02-01T12:30:07;39.58;;;16.98;;
76035;SDS011;64732;56.314;44.068;2023-02-01T12:32:44;34.25;;;15.48;;
76035;SDS011;64732;56.314;44.068;2023-02-01T12:35:13;39.30;;;16.52;;
76035;SDS011;64732;56.314;44.068;2023-02-01T12:37:46;38.50;;;16.13;;
76035;SDS011;64732;56.314;44.068;2023-02-01T12:40:17;39.28;;;16.42;;
76035;SDS011;64732;56.314;44.068;2023-02-01T12:42:43;37.65;;;15.73;;
76035;SDS011;64732;56.314;44.068;2023-02-01T12:45:11;36.40;;;16.02;;
76035;SDS011;64732;56.314;44.068;2023-02-01T12:47:35;38.58;;;15.30;;
76035;SDS011;64732;56.314;44.068;2023-02-01T12:50:11;40.90;;;15.15;;
76035;SDS011;64732;56.314;44.068;2023-02-01T12:52:36;38.13;;;15.15;;
76035;SDS011;64732;56.314;44.068;2023-02-01T12:55:00;39.72;;;15.82;;
76035;SDS011;64732;56.314;44.068;2023-02-01T12:57:25;39.28;;;15.05;;
76035;SDS011;64732;56.314;44.068;2023-02-01T12:59:49;40.85;;;15.57;;
76035;SDS011;64732;56.314;44.068;2023-02-01T13:02:15;42.40;;;17.27;;
76035;SDS011;64732;56.314;44.068;2023-02-01T13:04:49;40.42;;;16.10;;
76035;SDS011;64732;56.314;44.068;2023-02-01T13:07:19;42.75;;;16.17;;
76035;SDS011;64732;56.314;44.068;2023-02-01T13:09:43;44.67;;;17.30;;
76035;SDS011;64732;56.314;44.068;2023-02-01T13:12:11;42.67;;;15.68;;
76035;SDS011;64732;56.314;44.068;2023-02-01T13:14:35;41.17;;;16.85;;
76035;SDS011;64732;56.314;44.068;2023-02-01T13:17:00;40.33;;;14.65;;
76035;SDS011;64732;56.314;44.068;2023-02-01T13:19:27;43.40;;;17.08;;
76035;SDS011;64732;56.314;44.068;2023-02-01T13:21:53;39.55;;;16.88;;
76035;SDS011;64732;56.314;44.068;2023-02-01T13:24:26;47.33;;;16.77;;
76035;SDS011;64732;56.314;44.068;2023-02-01T13:26:52;46.40;;;16.67;;
76035;SDS011;64732;56.314;44.068;2023-02-01T13:29:14;41.67;;;16.40;;
76035;SDS011;64732;56.314;44.068;2023-02-01T13:31:52;46.97;;;16.73;;
76035;SDS011;64732;56.314;44.068;2023-02-01T13:42:13;41.70;;;15.68;;
76035;SDS011;64732;56.314;44.068;2023-02-01T13:44:37;41.63;;;16.27;;
76035;SDS011;64732;56.314;44.068;2023-02-01T13:47:00;43.65;;;18.02;;
76035;SDS011;64732;56.314;44.068;2023-02-01T13:49:23;43.47;;;17.17;;
76035;SDS011;64732;56.314;44.068;2023-02-01T13:51:45;47.25;;;17.95;;
76035;SDS011;64732;56.314;44.068;2023-02-01T13:54:21;49.60;;;18.58;;
76035;SDS011;64732;56.314;44.068;2023-02-01T13:56:48;41.80;;;15.07;;
76035;SDS011;64732;56.314;44.068;2023-02-01T14:04:46;50.35;;;16.73;;
76035;SDS011;64732;56.314;44.068;2023-02-01T14:07:15;43.42;;;16.85;;
76035;SDS011;64732;56.314;44.068;2023-02-01T14:09:38;45.00;;;17.10;;
76035;SDS011;64732;56.314;44.068;2023-02-01T14:14:54;45.22;;;16.80;;
76035;SDS011;64732;56.314;44.068;2023-02-01T14:17:39;47.70;;;17.75;;